Westwego, Louisiana
Current Conditions -  °F | °C
As of 1:55 AM on Friday 19 Dec 2014 (Local Time) from KVSH Reporting Station
Broken Clouds Broken Clouds  
Wind Chill: 14°   Ceiling: 4100
Heat Index: 14°   Visibility: 10mi
Dew Point: 10°   Wind: 5mph
Humidity: 77%   Direction: 60°ENE
Pressure: 30.09"   Gusts: NA
Location:  29.91°N, 90.14°W
Report Text: KVSH 190755Z AUTO 06004KT 10SM BKN041 BKN100 14/10 A3009 RMK AO1
Loading
Personal Weather Stations






























Interactive Weather Map New forecast layout! Learn more

10-Day Weather Forecast

Advertisements
Track Severe Weather on mobile